createdAt,value
2018-11-22T00:00:51.241Z,940.39
2018-11-22T00:01:59.217Z,940.40
2018-11-22T00:03:07.261Z,940.38
2018-11-22T00:04:15.332Z,940.35
2018-11-22T00:05:23.380Z,940.38
2018-11-22T00:06:31.520Z,940.34
2018-11-22T00:07:39.500Z,940.41
2018-11-22T00:08:47.548Z,940.35
2018-11-22T00:09:55.609Z,940.38
2018-11-22T00:11:03.626Z,940.40
2018-11-22T00:12:11.806Z,940.44
2018-11-22T00:13:19.876Z,940.43
2018-11-22T00:14:27.830Z,940.42
2018-11-22T00:15:35.903Z,940.44
2018-11-22T00:16:43.919Z,940.44
2018-11-22T00:17:52.093Z,940.49
2018-11-22T00:19:00.053Z,940.46
2018-11-22T00:20:08.112Z,940.52
2018-11-22T00:21:16.162Z,940.47
2018-11-22T00:22:24.214Z,940.52
2018-11-22T00:23:32.282Z,940.54
2018-11-22T00:24:40.343Z,940.52
2018-11-22T00:25:48.408Z,940.54
2018-11-22T00:26:56.458Z,940.54
2018-11-22T00:28:04.601Z,940.55
2018-11-22T00:29:12.666Z,940.56
2018-11-22T00:30:20.632Z,940.56
2018-11-22T00:31:28.684Z,940.55
2018-11-22T00:32:36.742Z,940.57
2018-11-22T00:33:44.900Z,940.53
2018-11-22T00:34:52.865Z,940.57
2018-11-22T00:36:00.914Z,940.58
2018-11-22T00:37:08.977Z,940.57
2018-11-22T00:38:17.024Z,940.56
2018-11-22T00:39:25.174Z,940.56
2018-11-22T00:40:33.143Z,940.56
2018-11-22T00:41:41.200Z,940.58
2018-11-22T00:42:49.272Z,940.55
2018-11-22T00:43:57.334Z,940.54
2018-11-22T00:45:05.478Z,940.57
2018-11-22T00:46:13.414Z,940.54
2018-11-22T00:47:21.510Z,940.57
2018-11-22T00:48:29.549Z,940.59
2018-11-22T00:49:37.614Z,940.57
2018-11-22T00:50:45.888Z,940.62
2018-11-22T00:51:53.700Z,940.61
2018-11-22T00:53:01.781Z,940.61
2018-11-22T00:54:09.843Z,940.62
2018-11-22T00:55:17.898Z,940.62
2018-11-22T00:56:26.035Z,940.63
2018-11-22T00:57:33.999Z,940.64
2018-11-22T00:58:42.085Z,940.65
2018-11-22T00:59:50.141Z,940.65
2018-11-22T01:00:58.278Z,940.62
2018-11-22T01:02:06.346Z,940.69
2018-11-22T01:03:14.294Z,940.68
2018-11-22T01:04:22.358Z,940.66
2018-11-22T01:05:30.425Z,940.63
2018-11-22T01:06:38.474Z,940.64
2018-11-22T01:07:46.588Z,940.66
2018-11-22T01:08:54.601Z,940.65
2018-11-22T01:10:02.649Z,940.65
2018-11-22T01:11:10.710Z,940.62
2018-11-22T01:12:18.775Z,940.65
2018-11-22T01:13:26.921Z,940.67
2018-11-22T01:14:34.872Z,940.67
2018-11-22T01:15:42.939Z,940.68
2018-11-22T01:16:51.089Z,940.70
2018-11-22T01:17:59.048Z,940.67
2018-11-22T01:19:07.210Z,940.68
2018-11-22T01:20:15.178Z,940.69
2018-11-22T01:21:23.235Z,940.70
2018-11-22T01:22:31.283Z,940.69
2018-11-22T01:23:39.344Z,940.69
2018-11-22T01:24:47.496Z,940.68
2018-11-22T01:25:55.460Z,940.67
2018-11-22T01:27:03.497Z,940.67
2018-11-22T01:28:11.579Z,940.67
2018-11-22T01:29:19.633Z,940.69
2018-11-22T01:30:27.789Z,940.69
2018-11-22T01:31:35.760Z,940.70
2018-11-22T01:32:43.836Z,940.70
2018-11-22T01:33:51.869Z,940.71
2018-11-22T01:34:59.907Z,940.69
2018-11-22T01:36:08.078Z,940.67
2018-11-22T01:37:16.028Z,940.70
2018-11-22T01:38:24.079Z,940.69
2018-11-22T01:39:32.149Z,940.71
2018-11-22T01:40:40.216Z,940.70
2018-11-22T01:41:48.366Z,940.70
2018-11-22T01:42:56.318Z,940.71
2018-11-22T01:44:04.373Z,940.69
2018-11-22T01:45:12.429Z,940.71
2018-11-22T01:46:20.493Z,940.68
2018-11-22T01:47:28.640Z,940.68
2018-11-22T01:48:36.620Z,940.69
2018-11-22T01:49:44.670Z,940.69
2018-11-22T01:50:52.721Z,940.69
2018-11-22T01:52:00.778Z,940.68
2018-11-22T01:53:08.932Z,940.69
2018-11-22T01:54:16.907Z,940.69
2018-11-22T01:55:24.979Z,940.71
2018-11-22T01:56:33.025Z,940.68
2018-11-22T01:57:41.157Z,940.70
2018-11-22T01:58:49.134Z,940.68
2018-11-22T01:59:57.200Z,940.70
2018-11-22T02:01:05.239Z,940.68
2018-11-22T02:02:13.288Z,940.66
2018-11-22T02:03:21.442Z,940.69
2018-11-22T02:04:29.425Z,940.70
2018-11-22T02:05:37.493Z,940.71
2018-11-22T02:06:45.530Z,940.72
2018-11-22T02:07:53.574Z,940.70
2018-11-22T02:09:01.734Z,940.71
2018-11-22T02:10:09.707Z,940.71
2018-11-22T02:11:17.775Z,940.72
2018-11-22T02:12:26.529Z,940.74
2018-11-22T02:13:33.884Z,940.72
2018-11-22T02:14:42.033Z,940.69
2018-11-22T02:15:49.991Z,940.71
2018-11-22T02:16:58.047Z,940.71
2018-11-22T02:18:06.115Z,940.71
2018-11-22T02:19:14.257Z,940.71
2018-11-22T02:20:22.319Z,940.73
2018-11-22T02:21:30.273Z,940.74
2018-11-22T02:22:38.333Z,940.70
2018-11-22T02:23:46.397Z,940.74
2018-11-22T02:24:54.455Z,940.75
2018-11-22T02:26:02.605Z,940.74
2018-11-22T02:27:10.572Z,940.71
2018-11-22T02:28:18.628Z,940.73
2018-11-22T02:29:26.677Z,940.72
2018-11-22T02:30:34.751Z,940.78
2018-11-22T02:31:42.896Z,940.81
2018-11-22T02:32:50.858Z,940.77
2018-11-22T02:33:58.918Z,940.80
2018-11-22T02:35:07.057Z,940.78
2018-11-22T02:36:15.038Z,940.78
2018-11-22T02:37:23.185Z,940.79
2018-11-22T02:38:31.147Z,940.79
2018-11-22T02:39:39.225Z,940.78
2018-11-22T02:40:47.266Z,940.79
2018-11-22T02:41:55.311Z,940.82
2018-11-22T02:43:03.491Z,940.85
2018-11-22T02:44:11.443Z,940.82
2018-11-22T02:45:19.502Z,940.84
2018-11-22T02:46:27.558Z,940.86
2018-11-22T02:47:35.703Z,940.88
2018-11-22T02:48:43.643Z,940.85
2018-11-22T02:49:51.729Z,940.88
2018-11-22T02:50:59.889Z,940.86
2018-11-22T02:52:07.835Z,940.86
2018-11-22T02:53:15.991Z,940.86
2018-11-22T02:54:23.944Z,940.83
2018-11-22T02:55:32.025Z,940.85
2018-11-22T02:56:40.072Z,940.86
2018-11-22T02:57:48.143Z,940.89
2018-11-22T02:58:56.236Z,940.85
2018-11-22T03:00:04.243Z,940.88
2018-11-22T03:01:12.319Z,940.87
2018-11-22T03:02:20.370Z,940.87
2018-11-22T03:03:28.418Z,940.90
2018-11-22T03:04:36.594Z,940.87
2018-11-22T03:05:44.526Z,940.84
2018-11-22T03:06:52.700Z,940.89
2018-11-22T03:08:00.646Z,940.85
2018-11-22T03:09:08.702Z,940.86
2018-11-22T03:10:16.860Z,940.88
2018-11-22T03:11:24.828Z,940.88
2018-11-22T03:12:32.894Z,940.90
2018-11-22T03:13:40.941Z,940.91
2018-11-22T03:14:49.006Z,940.88
2018-11-22T03:15:57.152Z,940.88
2018-11-22T03:17:05.119Z,940.88
2018-11-22T03:18:13.175Z,940.94
2018-11-22T03:19:21.237Z,940.92
2018-11-22T03:20:29.292Z,940.93
2018-11-22T03:21:37.453Z,940.92
2018-11-22T03:22:45.488Z,940.92
2018-11-22T03:23:53.439Z,940.91
2018-11-22T03:25:01.525Z,940.94
2018-11-22T03:26:09.584Z,940.94
2018-11-22T03:27:17.887Z,940.91
2018-11-22T03:28:25.698Z,940.90
2018-11-22T03:29:33.722Z,940.91
2018-11-22T03:30:41.803Z,940.88
2018-11-22T03:31:49.875Z,940.92
2018-11-22T03:32:58.014Z,940.92
2018-11-22T03:34:05.979Z,940.91
2018-11-22T03:35:14.019Z,940.89
2018-11-22T03:36:22.090Z,940.90
2018-11-22T03:37:30.251Z,940.93
2018-11-22T03:38:38.212Z,940.94
2018-11-22T03:39:46.263Z,940.95
2018-11-22T03:40:54.326Z,940.90
2018-11-22T03:42:02.410Z,940.89
2018-11-22T03:43:10.555Z,940.92
2018-11-22T03:44:18.488Z,940.92
2018-11-22T03:45:26.570Z,940.95
2018-11-22T03:46:34.624Z,940.94
2018-11-22T03:47:42.791Z,940.95
2018-11-22T03:48:50.716Z,940.98
2018-11-22T03:49:58.785Z,941.02
2018-11-22T03:51:06.860Z,941.00
2018-11-22T03:52:14.901Z,941.00
2018-11-22T03:53:23.054Z,940.99
2018-11-22T03:54:31.024Z,941.01
2018-11-22T03:55:39.091Z,940.98
2018-11-22T03:56:47.138Z,941.01
2018-11-22T03:57:55.204Z,941.02
2018-11-22T03:59:03.341Z,941.03
2018-11-22T04:00:11.306Z,941.00
2018-11-22T04:01:19.378Z,941.03
2018-11-22T04:02:27.413Z,940.99
2018-11-22T04:03:35.496Z,940.98
2018-11-22T04:04:43.627Z,940.98
2018-11-22T04:05:51.619Z,941.02
2018-11-22T04:06:59.656Z,941.07
2018-11-22T04:08:07.817Z,941.03
2018-11-22T04:09:15.781Z,941.05
2018-11-22T04:10:23.877Z,941.07
2018-11-22T04:11:31.931Z,941.07
2018-11-22T04:12:39.956Z,941.05
2018-11-22T04:13:48.004Z,941.01
2018-11-22T04:14:56.160Z,941.00
2018-11-22T04:16:04.120Z,941.02
2018-11-22T04:17:12.175Z,941.06
2018-11-22T04:18:20.240Z,941.04
2018-11-22T04:19:28.305Z,941.06
2018-11-22T04:20:36.455Z,941.04
2018-11-22T04:21:44.415Z,941.06
2018-11-22T04:22:52.555Z,941.06
2018-11-22T04:24:00.536Z,941.06
2018-11-22T04:25:08.596Z,941.07
2018-11-22T04:26:16.923Z,941.05
2018-11-22T04:27:24.707Z,941.05
2018-11-22T04:28:32.761Z,941.00
2018-11-22T04:29:40.823Z,941.03
2018-11-22T04:30:48.874Z,941.04
2018-11-22T04:31:57.033Z,941.10
2018-11-22T04:33:04.995Z,941.09
2018-11-22T04:34:13.046Z,941.05
2018-11-22T04:35:21.121Z,941.06
2018-11-22T04:36:29.171Z,941.09
2018-11-22T04:37:37.317Z,941.05
2018-11-22T04:38:45.325Z,941.10
2018-11-22T04:39:53.336Z,941.03
2018-11-22T04:41:01.407Z,941.04
2018-11-22T04:42:10.181Z,941.07
2018-11-22T04:43:17.564Z,941.09
2018-11-22T04:44:25.607Z,941.11
2018-11-22T04:45:33.605Z,941.12
2018-11-22T04:46:41.698Z,941.10
2018-11-22T04:47:49.843Z,941.12
2018-11-22T04:48:57.810Z,941.15
2018-11-22T04:50:05.866Z,941.14
2018-11-22T04:51:13.901Z,941.12
2018-11-22T04:52:21.974Z,941.13
2018-11-22T04:53:30.120Z,941.13
2018-11-22T04:54:38.187Z,941.09
2018-11-22T04:55:46.142Z,941.11
2018-11-22T04:56:54.204Z,941.08
2018-11-22T04:58:02.274Z,941.10
2018-11-22T04:59:10.420Z,941.11
2018-11-22T05:00:18.392Z,941.12
2018-11-22T05:01:26.448Z,941.14
2018-11-22T05:02:34.514Z,941.11
2018-11-22T05:03:42.563Z,941.08
2018-11-22T05:04:50.714Z,941.10
2018-11-22T05:05:58.667Z,941.06
2018-11-22T05:07:06.723Z,941.06
2018-11-22T05:08:14.771Z,941.04
2018-11-22T05:09:22.845Z,941.03
2018-11-22T05:10:31.003Z,941.04
2018-11-22T05:11:38.965Z,941.02
2018-11-22T05:12:47.018Z,941.04
2018-11-22T05:13:55.070Z,941.06
2018-11-22T05:15:03.127Z,941.07
2018-11-22T05:16:11.292Z,941.04
2018-11-22T05:17:19.247Z,941.05
2018-11-22T05:18:27.306Z,941.05
2018-11-22T05:19:35.368Z,941.10
2018-11-22T05:20:43.404Z,941.09
2018-11-22T05:21:51.578Z,941.14
2018-11-22T05:22:59.528Z,941.14
2018-11-22T05:24:07.591Z,941.12
2018-11-22T05:25:15.655Z,941.12
2018-11-22T05:26:23.786Z,941.04
2018-11-22T05:27:31.867Z,941.10
2018-11-22T05:28:39.819Z,941.06
2018-11-22T05:29:47.875Z,941.07
2018-11-22T05:30:55.966Z,941.06
2018-11-22T05:32:03.968Z,941.07
2018-11-22T05:33:12.149Z,941.12
2018-11-22T05:34:20.114Z,941.10
2018-11-22T05:35:28.157Z,941.05
2018-11-22T05:36:36.219Z,941.04
2018-11-22T05:37:44.267Z,941.05
2018-11-22T05:38:53.376Z,941.07
2018-11-22T05:40:00.404Z,941.12
2018-11-22T05:41:08.458Z,941.11
2018-11-22T05:42:17.064Z,941.14
2018-11-22T05:43:24.681Z,941.13
2018-11-22T05:44:32.723Z,941.14
2018-11-22T05:45:40.676Z,941.16
2018-11-22T05:46:48.748Z,941.13
2018-11-22T05:47:56.797Z,941.10
2018-11-22T05:49:04.832Z,941.10
2018-11-22T05:50:13.007Z,941.16
2018-11-22T05:51:20.977Z,941.14
2018-11-22T05:52:29.017Z,941.14
2018-11-22T05:53:37.079Z,941.09
2018-11-22T05:54:45.750Z,941.14
2018-11-22T05:55:53.285Z,941.13
2018-11-22T05:57:01.429Z,941.18
2018-11-22T05:58:09.379Z,941.17
2018-11-22T05:59:17.352Z,941.16
2018-11-22T06:00:25.419Z,941.17
2018-11-22T06:01:33.558Z,941.20
2018-11-22T06:02:41.541Z,941.20
2018-11-22T06:03:49.594Z,941.19
2018-11-22T06:04:57.654Z,941.20
2018-11-22T06:06:06.164Z,941.17
2018-11-22T06:07:13.822Z,941.17
2018-11-22T06:08:21.815Z,941.12
2018-11-22T06:09:29.875Z,941.18
2018-11-22T06:10:37.930Z,941.19
2018-11-22T06:11:45.988Z,941.22
2018-11-22T06:12:54.162Z,941.22
2018-11-22T06:14:02.103Z,941.23
2018-11-22T06:15:10.149Z,941.20
2018-11-22T06:16:18.439Z,941.20
2018-11-22T06:17:26.258Z,941.23
2018-11-22T06:18:34.302Z,941.22
2018-11-22T06:19:42.376Z,941.22
2018-11-22T06:20:50.430Z,941.23
2018-11-22T06:21:58.500Z,941.25
2018-11-22T06:23:06.649Z,941.26
2018-11-22T06:24:14.600Z,941.28
2018-11-22T06:25:22.670Z,941.28
2018-11-22T06:26:30.722Z,941.30
2018-11-22T06:27:38.878Z,941.26
2018-11-22T06:28:46.933Z,941.28
2018-11-22T06:29:54.900Z,941.28
2018-11-22T06:31:06.270Z,941.33
2018-11-22T06:32:11.012Z,941.29
2018-11-22T06:33:19.074Z,941.31
2018-11-22T06:34:27.222Z,941.31
2018-11-22T06:35:35.194Z,941.34
2018-11-22T06:36:43.237Z,941.37
2018-11-22T06:37:51.303Z,941.32
2018-11-22T06:38:59.355Z,941.36
2018-11-22T06:40:07.497Z,941.36
2018-11-22T06:41:15.465Z,941.34
2018-11-22T06:42:23.522Z,941.33
2018-11-22T06:43:31.578Z,941.36
2018-11-22T06:44:39.637Z,941.31
2018-11-22T06:45:47.789Z,941.28
2018-11-22T06:46:55.757Z,941.33
2018-11-22T06:48:03.814Z,941.35
2018-11-22T06:49:11.872Z,941.34
2018-11-22T06:50:19.914Z,941.38
2018-11-22T06:51:28.073Z,941.36
2018-11-22T06:52:36.056Z,941.37
2018-11-22T06:53:44.092Z,941.35
2018-11-22T06:54:52.161Z,941.34
2018-11-22T06:56:00.229Z,941.33
2018-11-22T06:57:08.335Z,941.35
2018-11-22T06:58:16.433Z,941.35
2018-11-22T06:59:24.372Z,941.39
2018-11-22T07:00:32.460Z,941.38
2018-11-22T07:01:40.517Z,941.38
2018-11-22T07:02:48.670Z,941.41
2018-11-22T07:03:56.615Z,941.40
2018-11-22T07:05:04.697Z,941.46
2018-11-22T07:06:12.756Z,941.43
2018-11-22T07:07:20.812Z,941.49
2018-11-22T07:08:28.849Z,941.51
2018-11-22T07:09:36.906Z,941.51
2018-11-22T07:10:44.990Z,941.50
2018-11-22T07:11:53.038Z,941.53
2018-11-22T07:13:01.204Z,941.54
2018-11-22T07:14:09.146Z,941.47
2018-11-22T07:15:17.198Z,941.47
2018-11-22T07:16:25.286Z,941.45
2018-11-22T07:17:33.307Z,941.52
2018-11-22T07:18:41.468Z,941.50
2018-11-22T07:19:49.431Z,941.46
2018-11-22T07:20:57.488Z,941.45
2018-11-22T07:22:05.542Z,941.46
2018-11-22T07:23:13.588Z,941.44
2018-11-22T07:24:21.756Z,941.47
2018-11-22T07:25:29.723Z,941.47
2018-11-22T07:26:37.782Z,941.47
2018-11-22T07:27:45.930Z,941.46
2018-11-22T07:28:53.876Z,941.44
2018-11-22T07:30:02.056Z,941.47
2018-11-22T07:31:09.995Z,941.49
2018-11-22T07:32:18.065Z,941.47
2018-11-22T07:33:26.161Z,941.45
2018-11-22T07:34:34.147Z,941.43
2018-11-22T07:35:42.322Z,941.43
2018-11-22T07:36:50.313Z,941.45
2018-11-22T07:37:58.361Z,941.46
2018-11-22T07:39:06.411Z,941.45
2018-11-22T07:40:14.558Z,941.44
2018-11-22T07:41:22.635Z,941.46
2018-11-22T07:42:30.673Z,941.46
2018-11-22T07:43:38.651Z,941.46
2018-11-22T07:44:46.696Z,941.49
2018-11-22T07:45:54.764Z,941.47
2018-11-22T07:47:02.895Z,941.45
2018-11-22T07:48:10.877Z,941.43
2018-11-22T07:49:18.935Z,941.38
2018-11-22T07:50:27.009Z,941.38
2018-11-22T07:51:35.042Z,941.38
2018-11-22T07:52:43.201Z,941.37
2018-11-22T07:53:51.163Z,941.39
2018-11-22T07:54:59.218Z,941.40
2018-11-22T07:56:07.338Z,941.41
2018-11-22T07:57:15.339Z,941.47
2018-11-22T07:58:23.465Z,941.46
2018-11-22T07:59:31.463Z,941.50
2018-11-22T08:00:39.501Z,941.51
2018-11-22T08:01:47.567Z,941.53
2018-11-22T08:02:55.720Z,941.60
2018-11-22T08:04:03.680Z,941.60
2018-11-22T08:05:11.740Z,941.59
2018-11-22T08:06:19.822Z,941.58
2018-11-22T08:07:27.850Z,941.59
2018-11-22T08:08:35.920Z,941.54
2018-11-22T08:09:43.953Z,941.60
2018-11-22T08:10:52.025Z,941.61
2018-11-22T08:12:00.089Z,941.61
2018-11-22T08:13:08.245Z,941.64
2018-11-22T08:14:16.312Z,941.66
2018-11-22T08:15:24.238Z,941.66
2018-11-22T08:16:32.305Z,941.68
2018-11-22T08:17:40.380Z,941.63
2018-11-22T08:18:48.540Z,941.66
2018-11-22T08:19:56.499Z,941.65
2018-11-22T08:21:04.822Z,941.69
2018-11-22T08:22:12.590Z,941.69
2018-11-22T08:23:20.669Z,941.70
2018-11-22T08:24:28.812Z,941.73
2018-11-22T08:25:36.792Z,941.70
2018-11-22T08:26:44.851Z,941.75
2018-11-22T08:27:52.906Z,941.76
2018-11-22T08:29:00.951Z,941.77
2018-11-22T08:30:10.202Z,941.79
2018-11-22T08:31:17.073Z,941.80
2018-11-22T08:32:25.123Z,941.87
2018-11-22T08:33:33.176Z,941.89
2018-11-22T08:34:41.244Z,941.90
2018-11-22T08:35:49.385Z,941.94
2018-11-22T08:36:57.353Z,941.94
2018-11-22T08:38:05.422Z,941.95
2018-11-22T08:39:13.460Z,941.95
2018-11-22T08:40:21.520Z,942.01
2018-11-22T08:41:29.679Z,942.10
2018-11-22T08:42:37.649Z,942.06
2018-11-22T08:43:45.696Z,942.05
2018-11-22T08:44:53.737Z,942.08
2018-11-22T08:46:01.897Z,942.04
2018-11-22T08:47:12.175Z,942.10
2018-11-22T08:48:17.946Z,942.05
2018-11-22T08:49:26.004Z,942.04
2018-11-22T08:50:34.031Z,942.06
2018-11-22T08:51:42.118Z,942.07
2018-11-22T08:52:50.278Z,942.05
2018-11-22T08:53:58.219Z,942.06
2018-11-22T08:55:06.272Z,942.06
2018-11-22T08:56:14.334Z,942.09
2018-11-22T08:57:22.399Z,942.07
2018-11-22T08:58:30.467Z,942.09
2018-11-22T08:59:38.520Z,942.06
2018-11-22T09:00:46.573Z,942.08
2018-11-22T09:01:54.723Z,942.09
2018-11-22T09:03:02.792Z,942.07
2018-11-22T09:04:10.755Z,942.07
2018-11-22T09:05:18.818Z,942.11
2018-11-22T09:06:26.870Z,942.12
2018-11-22T09:07:35.046Z,942.15
2018-11-22T09:08:42.989Z,942.12
2018-11-22T09:09:51.039Z,942.13
2018-11-22T09:10:59.112Z,942.15
2018-11-22T09:12:07.163Z,942.17
2018-11-22T09:13:15.318Z,942.20
2018-11-22T09:14:23.270Z,942.22
2018-11-22T09:15:31.541Z,942.23
2018-11-22T09:16:39.418Z,942.24
2018-11-22T09:17:47.522Z,942.29
2018-11-22T09:18:55.622Z,942.24
2018-11-22T09:20:03.569Z,942.22
2018-11-22T09:21:11.653Z,942.25
2018-11-22T09:22:19.690Z,942.21
2018-11-22T09:23:27.756Z,942.26
2018-11-22T09:24:35.918Z,942.24
2018-11-22T09:25:44.200Z,942.25
2018-11-22T09:26:51.940Z,942.22
2018-11-22T09:27:59.997Z,942.25
2018-11-22T09:29:08.057Z,942.28
2018-11-22T09:30:16.219Z,942.23
2018-11-22T09:31:24.160Z,942.23
2018-11-22T09:32:32.337Z,942.24
2018-11-22T09:33:40.293Z,942.26
2018-11-22T09:34:48.361Z,942.22
2018-11-22T09:35:56.508Z,942.30
2018-11-22T09:37:04.484Z,942.27
2018-11-22T09:38:12.514Z,942.25
2018-11-22T09:39:20.604Z,942.25
2018-11-22T09:40:28.656Z,942.26
2018-11-22T09:41:36.808Z,942.25
2018-11-22T09:42:44.783Z,942.28
2018-11-22T09:43:52.838Z,942.21
2018-11-22T09:45:00.910Z,942.20
2018-11-22T09:46:08.952Z,942.24
2018-11-22T09:47:17.108Z,942.28
2018-11-22T09:48:25.190Z,942.24
2018-11-22T09:49:33.267Z,942.31
2018-11-22T09:50:41.192Z,942.31
2018-11-22T09:51:49.243Z,942.34
2018-11-22T09:52:57.397Z,942.30
2018-11-22T09:54:05.358Z,942.28
2018-11-22T09:55:13.402Z,942.32
2018-11-22T09:56:21.481Z,942.36
2018-11-22T09:57:29.647Z,942.34
2018-11-22T09:58:37.601Z,942.34
2018-11-22T09:59:45.667Z,942.34
2018-11-22T10:00:53.711Z,942.34
2018-11-22T10:02:01.789Z,942.36
2018-11-22T10:03:09.985Z,942.37
2018-11-22T10:04:18.016Z,942.38
2018-11-22T10:05:26.049Z,942.37
2018-11-22T10:06:33.992Z,942.36
2018-11-22T10:07:42.189Z,942.39
2018-11-22T10:08:50.157Z,942.40
2018-11-22T10:09:58.208Z,942.37
2018-11-22T10:11:06.270Z,942.38
2018-11-22T10:12:14.350Z,942.35
2018-11-22T10:13:22.639Z,942.38
2018-11-22T10:14:30.444Z,942.39
2018-11-22T10:15:38.502Z,942.39
2018-11-22T10:16:46.565Z,942.42
2018-11-22T10:17:54.632Z,942.44
2018-11-22T10:19:03.133Z,942.44
2018-11-22T10:20:10.838Z,942.47
2018-11-22T10:21:18.814Z,942.44
2018-11-22T10:22:26.941Z,942.43
2018-11-22T10:23:34.980Z,942.41
2018-11-22T10:24:43.091Z,942.41
2018-11-22T10:25:51.055Z,942.36
2018-11-22T10:26:59.112Z,942.35
2018-11-22T10:28:07.176Z,942.34
2018-11-22T10:29:15.258Z,942.37
2018-11-22T10:30:23.426Z,942.32
2018-11-22T10:31:31.400Z,942.28
2018-11-22T10:32:39.424Z,942.29
2018-11-22T10:33:47.484Z,942.30
2018-11-22T10:34:55.544Z,942.29
2018-11-22T10:36:03.673Z,942.31
2018-11-22T10:37:11.666Z,942.36
2018-11-22T10:38:19.750Z,942.31
2018-11-22T10:39:27.793Z,942.33
2018-11-22T10:40:35.836Z,942.33
2018-11-22T10:41:43.976Z,942.34
2018-11-22T10:42:51.965Z,942.29
2018-11-22T10:44:00.033Z,942.26
2018-11-22T10:45:08.094Z,942.23
2018-11-22T10:46:16.142Z,942.24
2018-11-22T10:47:24.253Z,942.27
2018-11-22T10:48:32.270Z,942.30
2018-11-22T10:49:40.336Z,942.28
2018-11-22T10:50:48.408Z,942.30
2018-11-22T10:51:56.550Z,942.34
2018-11-22T10:53:04.609Z,942.35
2018-11-22T10:54:12.564Z,942.37
2018-11-22T10:55:20.642Z,942.44
2018-11-22T10:56:28.684Z,942.41
2018-11-22T10:57:36.799Z,942.32
2018-11-22T10:58:44.820Z,942.25
2018-11-22T10:59:52.886Z,942.26
2018-11-22T11:01:00.940Z,942.26
2018-11-22T11:02:09.000Z,942.29
2018-11-22T11:03:17.146Z,942.34
2018-11-22T11:04:25.130Z,942.34
2018-11-22T11:05:33.163Z,942.32
2018-11-22T11:06:41.250Z,942.26
2018-11-22T11:07:49.396Z,942.28
2018-11-22T11:08:57.460Z,942.22
2018-11-22T11:10:05.422Z,942.21
2018-11-22T11:11:13.465Z,942.24
2018-11-22T11:12:25.418Z,942.17
2018-11-22T11:13:29.604Z,942.12
2018-11-22T11:14:37.752Z,942.11
2018-11-22T11:15:45.728Z,942.14
2018-11-22T11:16:53.767Z,942.10
2018-11-22T11:18:01.832Z,942.09
2018-11-22T11:19:09.906Z,942.08
2018-11-22T11:20:18.058Z,942.09
2018-11-22T11:21:26.032Z,942.11
2018-11-22T11:22:34.105Z,942.10
2018-11-22T11:23:42.148Z,942.10
2018-11-22T11:24:50.201Z,942.12
2018-11-22T11:25:58.364Z,942.16
2018-11-22T11:27:06.315Z,942.18
2018-11-22T11:28:14.385Z,942.21
2018-11-22T11:29:22.438Z,942.21
2018-11-22T11:30:30.505Z,942.24
2018-11-22T11:31:38.659Z,942.25
2018-11-22T11:32:46.613Z,942.24
2018-11-22T11:33:54.691Z,942.26
2018-11-22T11:35:02.753Z,942.24
2018-11-22T11:36:11.787Z,942.24
2018-11-22T11:37:18.956Z,942.27
2018-11-22T11:38:27.039Z,942.22
2018-11-22T11:39:34.990Z,942.18
2018-11-22T11:40:43.050Z,942.21
2018-11-22T11:41:51.122Z,942.18
2018-11-22T11:42:59.267Z,942.18
2018-11-22T11:44:07.234Z,942.16
2018-11-22T11:45:15.295Z,942.18
2018-11-22T11:46:23.348Z,942.17
2018-11-22T11:47:31.565Z,942.11
2018-11-22T11:48:39.473Z,942.11
2018-11-22T11:49:47.543Z,942.09
2018-11-22T11:50:55.586Z,942.08
2018-11-22T11:52:03.641Z,942.12
2018-11-22T11:53:11.821Z,942.08
2018-11-22T11:54:19.778Z,942.11
2018-11-22T11:55:27.848Z,942.12
2018-11-22T11:56:35.895Z,942.12
2018-11-22T11:57:43.949Z,942.09
2018-11-22T11:58:52.128Z,942.08
2018-11-22T12:00:00.101Z,942.06
2018-11-22T12:01:08.155Z,942.04
2018-11-22T12:02:16.221Z,942.05
2018-11-22T12:03:24.261Z,942.04
2018-11-22T12:04:32.307Z,942.02
2018-11-22T12:05:40.382Z,942.01
2018-11-22T12:06:48.472Z,942.02
2018-11-22T12:07:56.499Z,942.01
2018-11-22T12:09:04.666Z,942.02
2018-11-22T12:10:12.624Z,942.00
2018-11-22T12:11:20.697Z,942.00
2018-11-22T12:12:28.741Z,942.00
2018-11-22T12:13:36.823Z,941.96
2018-11-22T12:14:44.953Z,941.96
2018-11-22T12:15:52.925Z,941.96
2018-11-22T12:17:01.606Z,941.99
2018-11-22T12:18:09.059Z,941.96
2018-11-22T12:19:17.107Z,941.94
2018-11-22T12:20:25.241Z,941.94
2018-11-22T12:21:33.213Z,941.95
2018-11-22T12:22:41.284Z,941.93
2018-11-22T12:23:49.344Z,941.90
2018-11-22T12:24:57.500Z,941.94
2018-11-22T12:26:05.590Z,941.98
2018-11-22T12:27:13.500Z,941.91
2018-11-22T12:28:21.603Z,941.96
2018-11-22T12:29:29.654Z,941.93
2018-11-22T12:30:37.712Z,941.92
2018-11-22T12:31:45.870Z,941.89
2018-11-22T12:32:53.802Z,941.89
2018-11-22T12:34:01.895Z,941.89
2018-11-22T12:35:09.951Z,941.90
2018-11-22T12:36:18.022Z,941.94
2018-11-22T12:37:26.160Z,941.92
2018-11-22T12:38:34.151Z,941.94
2018-11-22T12:39:42.207Z,941.93
2018-11-22T12:40:50.369Z,941.93
2018-11-22T12:41:58.311Z,941.92
2018-11-22T12:43:06.421Z,941.92
2018-11-22T12:44:14.447Z,941.95
2018-11-22T12:45:22.510Z,941.97
2018-11-22T12:46:30.570Z,941.96
2018-11-22T12:47:38.742Z,941.94
2018-11-22T12:48:47.139Z,941.93
2018-11-22T12:49:54.740Z,941.93
2018-11-22T12:51:02.817Z,941.90
2018-11-22T12:52:10.881Z,941.86
2018-11-22T12:53:19.017Z,941.86
2018-11-22T12:54:27.326Z,941.89
2018-11-22T12:55:35.038Z,941.87
2018-11-22T12:56:43.193Z,941.87
2018-11-22T12:57:51.169Z,941.83
2018-11-22T12:58:59.751Z,941.86
2018-11-22T13:00:07.293Z,941.88
2018-11-22T13:02:25.822Z,941.92
2018-11-22T13:03:31.462Z,941.92
2018-11-22T13:04:39.719Z,941.89
2018-11-22T13:05:47.629Z,941.89
2018-11-22T13:06:55.657Z,941.89
2018-11-22T13:08:03.856Z,941.87
2018-11-22T13:09:11.935Z,941.88
2018-11-22T13:10:20.036Z,941.89
2018-11-22T13:11:27.958Z,941.88
2018-11-22T13:12:35.988Z,941.87
2018-11-22T13:13:43.986Z,941.87
2018-11-22T13:14:52.505Z,941.84
2018-11-22T13:16:00.401Z,941.83
2018-11-22T13:17:08.306Z,941.80
2018-11-22T13:18:16.254Z,941.81
2018-11-22T13:19:24.440Z,941.80
2018-11-22T13:20:32.393Z,941.75
2018-11-22T13:21:40.619Z,941.80
2018-11-22T13:22:48.508Z,941.80
2018-11-22T13:23:56.654Z,941.85
2018-11-22T13:25:04.688Z,941.81
2018-11-22T13:26:12.697Z,941.86
2018-11-22T13:27:20.932Z,941.85
2018-11-22T13:28:28.920Z,941.80
2018-11-22T13:29:36.871Z,941.86
2018-11-22T13:30:45.019Z,941.81
2018-11-22T13:31:53.087Z,941.86
2018-11-22T13:33:01.226Z,941.84
2018-11-22T13:34:09.200Z,941.85
2018-11-22T13:35:17.321Z,941.82
2018-11-22T13:36:25.346Z,941.80
2018-11-22T13:37:33.386Z,941.77
2018-11-22T13:38:41.405Z,941.84
2018-11-22T13:39:49.488Z,941.77
2018-11-22T13:40:59.130Z,941.78
2018-11-22T13:42:05.592Z,941.79
2018-11-22T13:43:13.759Z,941.72
2018-11-22T13:44:21.664Z,941.71
2018-11-22T13:45:29.798Z,941.72
2018-11-22T13:46:37.902Z,941.69
2018-11-22T13:47:46.014Z,941.72
2018-11-22T13:48:54.010Z,941.70
2018-11-22T13:50:01.991Z,941.68
2018-11-22T13:51:10.048Z,941.68
2018-11-22T13:52:18.198Z,941.73
2018-11-22T13:53:26.334Z,941.71
2018-11-22T13:54:34.321Z,941.70
2018-11-22T13:55:42.278Z,941.70
2018-11-22T13:56:50.417Z,941.71
2018-11-22T13:57:58.496Z,941.70
2018-11-22T13:59:06.559Z,941.70
2018-11-22T14:00:14.521Z,941.72
2018-11-22T14:01:22.653Z,941.69
2018-11-22T14:02:30.831Z,941.70
2018-11-22T14:03:38.754Z,941.75
2018-11-22T14:04:47.128Z,941.74
2018-11-22T14:05:54.847Z,941.74
2018-11-22T14:07:02.952Z,941.71
2018-11-22T14:08:10.950Z,941.73
2018-11-22T14:09:19.050Z,941.70
2018-11-22T14:10:27.295Z,941.73